Rare Metals, Arizona
Current Conditions -  °F | °C
As of 8:54 PM on Saturday 22 Nov 2014 (Local Time) from KGCN Reporting Station
Clear Clear  
Wind Chill: 33°   Ceiling: Unl
Heat Index: 40°   Visibility: 10mi
Dew Point: 17°   Wind: 13mph
Humidity: 40%   Direction: 210°SSW
Pressure: 29.99"   Gusts: NA
Location:  35.9808°N, 111.359°W
Report Text: KGCN 230354Z AUTO 21011KT 10SM CLR 04/M08 A2999 RMK AO2 SLP139 T00441083
Loading
Personal Weather Stations






























Interactive Weather Map New forecast layout! Learn more

10-Day Weather Forecast

Advertisements
Track Severe Weather on mobile